sensor_id;sensor_type;location;lat;lon;timestamp;pressure;altitude;pressure_sealevel;temperature
70417;BMP280;57839;51.332;12.410;2024-01-06T00:01:23;99046.88;;;6.59
70417;BMP280;57839;51.332;12.410;2024-01-06T00:03:49;99051.03;;;6.56
70417;BMP280;57839;51.332;12.410;2024-01-06T00:06:14;99062.47;;;6.57
70417;BMP280;57839;51.332;12.410;2024-01-06T00:08:40;99064.38;;;6.56
70417;BMP280;57839;51.332;12.410;2024-01-06T00:11:05;99060.94;;;6.56
70417;BMP280;57839;51.332;12.410;2024-01-06T00:13:31;99055.97;;;6.54
70417;BMP280;57839;51.332;12.410;2024-01-06T00:15:56;99052.53;;;6.54
70417;BMP280;57839;51.332;12.410;2024-01-06T00:18:22;99057.88;;;6.54
70417;BMP280;57839;51.332;12.410;2024-01-06T00:20:48;99057.09;;;6.53
70417;BMP280;57839;51.332;12.410;2024-01-06T00:23:13;99058.28;;;6.52
70417;BMP280;57839;51.332;12.410;2024-01-06T00:25:39;99049.84;;;6.50
70417;BMP280;57839;51.332;12.410;2024-01-06T00:28:05;99046.78;;;6.48
70417;BMP280;57839;51.332;12.410;2024-01-06T00:30:30;99051.72;;;6.46
70417;BMP280;57839;51.332;12.410;2024-01-06T00:32:56;99054.31;;;6.43
70417;BMP280;57839;51.332;12.410;2024-01-06T00:35:21;99050.50;;;6.40
70417;BMP280;57839;51.332;12.410;2024-01-06T00:37:47;99052.75;;;6.38
70417;BMP280;57839;51.332;12.410;2024-01-06T00:40:13;99050.09;;;6.38
70417;BMP280;57839;51.332;12.410;2024-01-06T00:42:38;99058.06;;;6.38
70417;BMP280;57839;51.332;12.410;2024-01-06T00:45:04;99053.91;;;6.37
70417;BMP280;57839;51.332;12.410;2024-01-06T00:47:31;99051.56;;;6.36
70417;BMP280;57839;51.332;12.410;2024-01-06T00:49:56;99056.13;;;6.35
70417;BMP280;57839;51.332;12.410;2024-01-06T00:52:22;99055.72;;;6.33
70417;BMP280;57839;51.332;12.410;2024-01-06T00:54:47;99059.09;;;6.30
70417;BMP280;57839;51.332;12.410;2024-01-06T00:57:13;99068.63;;;6.31
70417;BMP280;57839;51.332;12.410;2024-01-06T00:59:38;99062.13;;;6.29
70417;BMP280;57839;51.332;12.410;2024-01-06T01:02:04;99058.69;;;6.28
70417;BMP280;57839;51.332;12.410;2024-01-06T01:04:29;99060.22;;;6.26
70417;BMP280;57839;51.332;12.410;2024-01-06T01:06:55;99061.34;;;6.25
70417;BMP280;57839;51.332;12.410;2024-01-06T01:09:21;99066.66;;;6.25
70417;BMP280;57839;51.332;12.410;2024-01-06T01:11:46;99067.38;;;6.22
70417;BMP280;57839;51.332;12.410;2024-01-06T01:14:12;99063.53;;;6.19
70417;BMP280;57839;51.332;12.410;2024-01-06T01:16:38;99067.31;;;6.18
70417;BMP280;57839;51.332;12.410;2024-01-06T01:19:04;99068.81;;;6.16
70417;BMP280;57839;51.332;12.410;2024-01-06T01:21:29;99072.25;;;6.16
70417;BMP280;57839;51.332;12.410;2024-01-06T01:23:55;99073.34;;;6.15
70417;BMP280;57839;51.332;12.410;2024-01-06T01:26:20;99077.91;;;6.15
70417;BMP280;57839;51.332;12.410;2024-01-06T01:28:46;99079.03;;;6.14
70417;BMP280;57839;51.332;12.410;2024-01-06T01:31:12;99072.19;;;6.13
70417;BMP280;57839;51.332;12.410;2024-01-06T01:33:38;99076.75;;;6.12
70417;BMP280;57839;51.332;12.410;2024-01-06T01:36:04;99075.97;;;6.12
70417;BMP280;57839;51.332;12.410;2024-01-06T01:38:29;99079.00;;;6.10
70417;BMP280;57839;51.332;12.410;2024-01-06T01:40:55;99080.50;;;6.07
70417;BMP280;57839;51.332;12.410;2024-01-06T01:43:21;99087.31;;;6.05
70417;BMP280;57839;51.332;12.410;2024-01-06T01:45:50;99078.56;;;6.04
70417;BMP280;57839;51.332;12.410;2024-01-06T01:48:17;99090.72;;;6.05
70417;BMP280;57839;51.332;12.410;2024-01-06T01:50:43;99080.44;;;6.04
70417;BMP280;57839;51.332;12.410;2024-01-06T01:53:10;99079.66;;;6.03
70417;BMP280;57839;51.332;12.410;2024-01-06T01:55:36;99083.09;;;6.04
70417;BMP280;57839;51.332;12.410;2024-01-06T01:58:02;99092.19;;;6.03
70417;BMP280;57839;51.332;12.410;2024-01-06T02:00:27;99086.09;;;6.02
70417;BMP280;57839;51.332;12.410;2024-01-06T02:02:53;99097.88;;;6.01
70417;BMP280;57839;51.332;12.410;2024-01-06T02:05:19;99089.47;;;5.99
70417;BMP280;57839;51.332;12.410;2024-01-06T02:07:45;99097.47;;;5.99
70417;BMP280;57839;51.332;12.410;2024-01-06T02:10:10;99103.56;;;6.00
70417;BMP280;57839;51.332;12.410;2024-01-06T02:12:36;99102.06;;;5.99
70417;BMP280;57839;51.332;12.410;2024-01-06T02:15:01;99104.72;;;5.99
70417;BMP280;57839;51.332;12.410;2024-01-06T02:17:27;99109.28;;;5.98
70417;BMP280;57839;51.332;12.410;2024-01-06T02:19:53;99108.84;;;5.96
70417;BMP280;57839;51.332;12.410;2024-01-06T02:22:18;99107.31;;;5.95
70417;BMP280;57839;51.332;12.410;2024-01-06T02:24:44;99112.25;;;5.93
70417;BMP280;57839;51.332;12.410;2024-01-06T02:27:09;99113.34;;;5.92
70417;BMP280;57839;51.332;12.410;2024-01-06T02:29:35;99109.50;;;5.90
70417;BMP280;57839;51.332;12.410;2024-01-06T02:32:01;99118.59;;;5.89
70417;BMP280;57839;51.332;12.410;2024-01-06T02:34:26;99113.28;;;5.89
70417;BMP280;57839;51.332;12.410;2024-01-06T02:36:52;99121.25;;;5.89
70417;BMP280;57839;51.332;12.410;2024-01-06T02:39:18;99119.72;;;5.88
70417;BMP280;57839;51.332;12.410;2024-01-06T02:41:43;99117.06;;;5.88
70417;BMP280;57839;51.332;12.410;2024-01-06T02:44:09;99120.88;;;5.87
70417;BMP280;57839;51.332;12.410;2024-01-06T02:46:34;99132.28;;;5.87
70417;BMP280;57839;51.332;12.410;2024-01-06T02:49:00;99130.72;;;5.86
70417;BMP280;57839;51.332;12.410;2024-01-06T02:51:26;99129.97;;;5.86
70417;BMP280;57839;51.332;12.410;2024-01-06T02:53:51;99129.19;;;5.85
70417;BMP280;57839;51.332;12.410;2024-01-06T02:56:17;99133.00;;;5.84
70417;BMP280;57839;51.332;12.410;2024-01-06T02:58:42;99136.06;;;5.86
70417;BMP280;57839;51.332;12.410;2024-01-06T03:01:08;99142.50;;;5.85
70417;BMP280;57839;51.332;12.410;2024-01-06T03:03:33;99142.88;;;5.84
70417;BMP280;57839;51.332;12.410;2024-01-06T03:05:59;99137.91;;;5.82
70417;BMP280;57839;51.332;12.410;2024-01-06T03:08:25;99144.00;;;5.83
70417;BMP280;57839;51.332;12.410;2024-01-06T03:10:50;99142.44;;;5.82
70417;BMP280;57839;51.332;12.410;2024-01-06T03:13:16;99144.38;;;5.81
70417;BMP280;57839;51.332;12.410;2024-01-06T03:15:41;99149.69;;;5.81
70417;BMP280;57839;51.332;12.410;2024-01-06T03:18:07;99144.69;;;5.80
70417;BMP280;57839;51.332;12.410;2024-01-06T03:20:34;99132.50;;;5.79
70417;BMP280;57839;51.332;12.410;2024-01-06T03:22:59;99135.53;;;5.77
70417;BMP280;57839;51.332;12.410;2024-01-06T03:25:25;99141.19;;;5.76
70417;BMP280;57839;51.332;12.410;2024-01-06T03:27:50;99139.59;;;5.71
70417;BMP280;57839;51.332;12.410;2024-01-06T03:30:16;99137.69;;;5.68
70417;BMP280;57839;51.332;12.410;2024-01-06T03:32:41;99146.44;;;5.69
70417;BMP280;57839;51.332;12.410;2024-01-06T03:35:07;99145.66;;;5.68
70417;BMP280;57839;51.332;12.410;2024-01-06T03:37:33;99151.75;;;5.69
70417;BMP280;57839;51.332;12.410;2024-01-06T03:39:59;99154.75;;;5.67
70417;BMP280;57839;51.332;12.410;2024-01-06T03:42:24;99152.78;;;5.64
70417;BMP280;57839;51.332;12.410;2024-01-06T03:44:50;99149.72;;;5.62
70417;BMP280;57839;51.332;12.410;2024-01-06T03:47:15;99156.94;;;5.62
70417;BMP280;57839;51.332;12.410;2024-01-06T03:49:41;99162.94;;;5.59
70417;BMP280;57839;51.332;12.410;2024-01-06T03:52:07;99162.16;;;5.58
70417;BMP280;57839;51.332;12.410;2024-01-06T03:54:32;99164.84;;;5.58
70417;BMP280;57839;51.332;12.410;2024-01-06T03:56:58;99166.75;;;5.58
70417;BMP280;57839;51.332;12.410;2024-01-06T03:59:23;99161.44;;;5.58
70417;BMP280;57839;51.332;12.410;2024-01-06T04:01:49;99155.34;;;5.57
70417;BMP280;57839;51.332;12.410;2024-01-06T04:04:14;99157.19;;;5.53
70417;BMP280;57839;51.332;12.410;2024-01-06T04:06:40;99152.56;;;5.50
70417;BMP280;57839;51.332;12.410;2024-01-06T04:09:05;99157.03;;;5.46
70417;BMP280;57839;51.332;12.410;2024-01-06T04:11:31;99158.88;;;5.42
70417;BMP280;57839;51.332;12.410;2024-01-06T04:13:56;99159.19;;;5.37
70417;BMP280;57839;51.332;12.410;2024-01-06T04:16:22;99180.38;;;5.33
70417;BMP280;57839;51.332;12.410;2024-01-06T04:18:48;99171.22;;;5.31
70417;BMP280;57839;51.332;12.410;2024-01-06T04:21:13;99167.78;;;5.30
70417;BMP280;57839;51.332;12.410;2024-01-06T04:23:39;99177.22;;;5.28
70417;BMP280;57839;51.332;12.410;2024-01-06T04:26:04;99183.97;;;5.25
70417;BMP280;57839;51.332;12.410;2024-01-06T04:28:32;99176.72;;;5.22
70417;BMP280;57839;51.332;12.410;2024-01-06T04:30:57;99186.16;;;5.20
70417;BMP280;57839;51.332;12.410;2024-01-06T04:33:23;99188.00;;;5.16
70417;BMP280;57839;51.332;12.410;2024-01-06T04:35:48;99195.91;;;5.12
70417;BMP280;57839;51.332;12.410;2024-01-06T04:38:15;99195.13;;;5.12
70417;BMP280;57839;51.332;12.410;2024-01-06T04:40:41;99198.56;;;5.12
70417;BMP280;57839;51.332;12.410;2024-01-06T04:43:06;99197.00;;;5.11
70417;BMP280;57839;51.332;12.410;2024-01-06T04:45:32;99188.25;;;5.11
70417;BMP280;57839;51.332;12.410;2024-01-06T04:47:58;99192.81;;;5.10
70417;BMP280;57839;51.332;12.410;2024-01-06T04:50:23;99188.63;;;5.09
70417;BMP280;57839;51.332;12.410;2024-01-06T04:52:49;99185.97;;;5.09
70417;BMP280;57839;51.332;12.410;2024-01-06T04:55:14;99186.28;;;5.08
70417;BMP280;57839;51.332;12.410;2024-01-06T04:57:41;99187.44;;;5.07
70417;BMP280;57839;51.332;12.410;2024-01-06T05:00:07;99184.34;;;5.05
70417;BMP280;57839;51.332;12.410;2024-01-06T05:02:33;99188.47;;;5.02
70417;BMP280;57839;51.332;12.410;2024-01-06T05:04:59;99194.56;;;5.03
70417;BMP280;57839;51.332;12.410;2024-01-06T05:07:24;99195.69;;;5.02
70417;BMP280;57839;51.332;12.410;2024-01-06T05:09:50;99198.69;;;5.00
70417;BMP280;57839;51.332;12.410;2024-01-06T05:12:16;99189.84;;;4.96
70417;BMP280;57839;51.332;12.410;2024-01-06T05:14:41;99200.84;;;4.95
70417;BMP280;57839;51.332;12.410;2024-01-06T05:17:07;99201.19;;;4.93
70417;BMP280;57839;51.332;12.410;2024-01-06T05:19:34;99201.53;;;4.92
70417;BMP280;57839;51.332;12.410;2024-01-06T05:22:00;99195.44;;;4.91
70417;BMP280;57839;51.332;12.410;2024-01-06T05:24:26;99203.78;;;4.90
70417;BMP280;57839;51.332;12.410;2024-01-06T05:26:51;99204.53;;;4.90
70417;BMP280;57839;51.332;12.410;2024-01-06T05:29:17;99209.84;;;4.90
70417;BMP280;57839;51.332;12.410;2024-01-06T05:31:42;99205.31;;;4.91
70417;BMP280;57839;51.332;12.410;2024-01-06T05:34:08;99211.75;;;4.90
70417;BMP280;57839;51.332;12.410;2024-01-06T05:36:33;99201.47;;;4.88
70417;BMP280;57839;51.332;12.410;2024-01-06T05:38:59;99204.50;;;4.87
70417;BMP280;57839;51.332;12.410;2024-01-06T05:41:26;99211.69;;;4.86
70417;BMP280;57839;51.332;12.410;2024-01-06T05:43:51;99210.16;;;4.85
70417;BMP280;57839;51.332;12.410;2024-01-06T05:46:24;99220.78;;;4.85
70417;BMP280;57839;51.332;12.410;2024-01-06T05:48:49;99231.41;;;4.85
70417;BMP280;57839;51.332;12.410;2024-01-06T05:51:15;99222.66;;;4.85
70417;BMP280;57839;51.332;12.410;2024-01-06T05:53:41;99235.59;;;4.86
70417;BMP280;57839;51.332;12.410;2024-01-06T05:56:07;99232.59;;;4.88
70417;BMP280;57839;51.332;12.410;2024-01-06T05:58:34;99240.22;;;4.89
70417;BMP280;57839;51.332;12.410;2024-01-06T06:01:00;99248.94;;;4.90
70417;BMP280;57839;51.332;12.410;2024-01-06T06:03:26;99248.13;;;4.86
70417;BMP280;57839;51.332;12.410;2024-01-06T06:05:51;99247.00;;;4.87
70417;BMP280;57839;51.332;12.410;2024-01-06T06:08:18;99254.19;;;4.86
70417;BMP280;57839;51.332;12.410;2024-01-06T06:10:43;99259.16;;;4.88
70417;BMP280;57839;51.332;12.410;2024-01-06T06:13:26;99259.56;;;4.90
70417;BMP280;57839;51.332;12.410;2024-01-06T06:15:52;99264.88;;;4.90
70417;BMP280;57839;51.332;12.410;2024-01-06T06:18:18;99264.88;;;4.90
70417;BMP280;57839;51.332;12.410;2024-01-06T06:20:43;99259.16;;;4.88
70417;BMP280;57839;51.332;12.410;2024-01-06T06:23:09;99267.91;;;4.88
70417;BMP280;57839;51.332;12.410;2024-01-06T06:25:40;99266.72;;;4.86
70417;BMP280;57839;51.332;12.410;2024-01-06T06:28:05;99273.47;;;4.83
70417;BMP280;57839;51.332;12.410;2024-01-06T06:30:32;99277.59;;;4.81
70417;BMP280;57839;51.332;12.410;2024-01-06T06:32:57;99283.59;;;4.77
70417;BMP280;57839;51.332;12.410;2024-01-06T06:35:24;99283.50;;;4.74
70417;BMP280;57839;51.332;12.410;2024-01-06T06:37:50;99295.94;;;4.70
70417;BMP280;57839;51.332;12.410;2024-01-06T06:40:15;99299.63;;;4.65
70417;BMP280;57839;51.332;12.410;2024-01-06T06:42:41;99303.66;;;4.59
70417;BMP280;57839;51.332;12.410;2024-01-06T06:45:07;99300.47;;;4.54
70417;BMP280;57839;51.332;12.410;2024-01-06T06:47:33;99301.53;;;4.49
70417;BMP280;57839;51.332;12.410;2024-01-06T06:49:58;99302.97;;;4.47
70417;BMP280;57839;51.332;12.410;2024-01-06T06:52:24;99312.41;;;4.44
70417;BMP280;57839;51.332;12.410;2024-01-06T06:54:49;99318.03;;;4.43
70417;BMP280;57839;51.332;12.410;2024-01-06T06:57:17;99316.50;;;4.42
70417;BMP280;57839;51.332;12.410;2024-01-06T06:59:42;99322.56;;;4.42
70417;BMP280;57839;51.332;12.410;2024-01-06T07:02:08;99334.31;;;4.41
70417;BMP280;57839;51.332;12.410;2024-01-06T07:04:34;99329.00;;;4.41
70417;BMP280;57839;51.332;12.410;2024-01-06T07:07:00;99326.34;;;4.41
70417;BMP280;57839;51.332;12.410;2024-01-06T07:09:25;99332.44;;;4.42
70417;BMP280;57839;51.332;12.410;2024-01-06T07:11:51;99338.50;;;4.42
70417;BMP280;57839;51.332;12.410;2024-01-06T07:14:17;99340.72;;;4.40
70417;BMP280;57839;51.332;12.410;2024-01-06T07:16:42;99337.28;;;4.40
70417;BMP280;57839;51.332;12.410;2024-01-06T07:19:08;99346.72;;;4.37
70417;BMP280;57839;51.332;12.410;2024-01-06T07:21:33;99352.44;;;4.39
70417;BMP280;57839;51.332;12.410;2024-01-06T07:24:00;99355.44;;;4.38
70417;BMP280;57839;51.332;12.410;2024-01-06T07:26:26;99361.09;;;4.36
70417;BMP280;57839;51.332;12.410;2024-01-06T07:28:52;99369.06;;;4.36
70417;BMP280;57839;51.332;12.410;2024-01-06T07:31:18;99368.28;;;4.36
70417;BMP280;57839;51.332;12.410;2024-01-06T07:33:44;99370.59;;;4.37
70417;BMP280;57839;51.332;12.410;2024-01-06T07:36:09;99366.06;;;4.38
70417;BMP280;57839;51.332;12.410;2024-01-06T07:38:36;99370.28;;;4.39
70417;BMP280;57839;51.332;12.410;2024-01-06T07:41:02;99370.69;;;4.41
70417;BMP280;57839;51.332;12.410;2024-01-06T07:43:29;99383.97;;;4.41
70417;BMP280;57839;51.332;12.410;2024-01-06T07:45:55;99379.09;;;4.43
70417;BMP280;57839;51.332;12.410;2024-01-06T07:48:21;99381.84;;;4.46
70417;BMP280;57839;51.332;12.410;2024-01-06T07:50:46;99381.19;;;4.49
70417;BMP280;57839;51.332;12.410;2024-01-06T07:53:12;99391.13;;;4.52
70417;BMP280;57839;51.332;12.410;2024-01-06T07:55:39;99384.00;;;4.56
70417;BMP280;57839;51.332;12.410;2024-01-06T07:58:05;99388.63;;;4.59
70417;BMP280;57839;51.332;12.410;2024-01-06T08:00:30;99396.25;;;4.61
70417;BMP280;57839;51.332;12.410;2024-01-06T08:02:56;99403.22;;;4.65
70417;BMP280;57839;51.332;12.410;2024-01-06T08:05:21;99409.06;;;4.71
70417;BMP280;57839;51.332;12.410;2024-01-06T08:07:47;99403.81;;;4.74
70417;BMP280;57839;51.332;12.410;2024-01-06T08:10:12;99406.22;;;4.79
70417;BMP280;57839;51.332;12.410;2024-01-06T08:12:38;99415.50;;;4.86
70417;BMP280;57839;51.332;12.410;2024-01-06T08:15:04;99421.66;;;4.90
70417;BMP280;57839;51.332;12.410;2024-01-06T08:17:30;99420.53;;;4.91
70417;BMP280;57839;51.332;12.410;2024-01-06T08:19:55;99424.06;;;4.95
70417;BMP280;57839;51.332;12.410;2024-01-06T08:22:21;99432.13;;;4.98
70417;BMP280;57839;51.332;12.410;2024-01-06T08:24:46;99442.16;;;5.05
70417;BMP280;57839;51.332;12.410;2024-01-06T08:27:12;99438.03;;;5.07
70417;BMP280;57839;51.332;12.410;2024-01-06T08:29:38;99439.56;;;5.08
70417;BMP280;57839;51.332;12.410;2024-01-06T08:32:04;99433.91;;;5.10
70417;BMP280;57839;51.332;12.410;2024-01-06T08:34:30;99436.66;;;5.13
70417;BMP280;57839;51.332;12.410;2024-01-06T08:36:55;99453.47;;;5.17
70417;BMP280;57839;51.332;12.410;2024-01-06T08:39:21;99454.25;;;5.18
70417;BMP280;57839;51.332;12.410;2024-01-06T08:41:47;99447.13;;;5.22
70417;BMP280;57839;51.332;12.410;2024-01-06T08:44:13;99452.50;;;5.25
70417;BMP280;57839;51.332;12.410;2024-01-06T08:46:39;99453.72;;;5.28
70417;BMP280;57839;51.332;12.410;2024-01-06T08:49:05;99457.22;;;5.32
70417;BMP280;57839;51.332;12.410;2024-01-06T08:51:31;99455.44;;;5.36
70417;BMP280;57839;51.332;12.410;2024-01-06T08:53:56;99462.78;;;5.42
70417;BMP280;57839;51.332;12.410;2024-01-06T08:56:22;99460.66;;;5.48
70417;BMP280;57839;51.332;12.410;2024-01-06T08:58:47;99466.47;;;5.54
70417;BMP280;57839;51.332;12.410;2024-01-06T09:01:13;99465.84;;;5.60
70417;BMP280;57839;51.332;12.410;2024-01-06T09:03:41;99470.91;;;5.65
70417;BMP280;57839;51.332;12.410;2024-01-06T09:06:07;99483.16;;;5.70
70417;BMP280;57839;51.332;12.410;2024-01-06T09:08:32;99487.78;;;5.73
70417;BMP280;57839;51.332;12.410;2024-01-06T09:10:58;99491.66;;;5.75
70417;BMP280;57839;51.332;12.410;2024-01-06T09:13:24;99488.31;;;5.78
70417;BMP280;57839;51.332;12.410;2024-01-06T09:15:50;99486.50;;;5.82
70417;BMP280;57839;51.332;12.410;2024-01-06T09:18:16;99476.28;;;5.84
70417;BMP280;57839;51.332;12.410;2024-01-06T09:20:42;99468.00;;;5.89
70417;BMP280;57839;51.332;12.410;2024-01-06T09:23:07;99480.28;;;5.94
70417;BMP280;57839;51.332;12.410;2024-01-06T09:25:33;99488.34;;;5.97
70417;BMP280;57839;51.332;12.410;2024-01-06T09:27:58;99486.50;;;6.01
70417;BMP280;57839;51.332;12.410;2024-01-06T09:30:24;99491.56;;;6.06
70417;BMP280;57839;51.332;12.410;2024-01-06T09:32:51;99491.28;;;6.12
70417;BMP280;57839;51.332;12.410;2024-01-06T09:35:16;99502.00;;;6.15
70417;BMP280;57839;51.332;12.410;2024-01-06T09:37:42;99504.75;;;6.19
70417;BMP280;57839;51.332;12.410;2024-01-06T09:40:11;99502.84;;;6.19
70417;BMP280;57839;51.332;12.410;2024-01-06T09:42:38;99500.97;;;6.20
70417;BMP280;57839;51.332;12.410;2024-01-06T09:45:05;99509.72;;;6.20
70417;BMP280;57839;51.332;12.410;2024-01-06T09:47:34;99507.81;;;6.21
70417;BMP280;57839;51.332;12.410;2024-01-06T09:50:01;99506.31;;;6.20
70417;BMP280;57839;51.332;12.410;2024-01-06T09:52:26;99514.34;;;6.23
70417;BMP280;57839;51.332;12.410;2024-01-06T09:54:54;99517.44;;;6.25
70417;BMP280;57839;51.332;12.410;2024-01-06T09:57:20;99522.00;;;6.25
70417;BMP280;57839;51.332;12.410;2024-01-06T09:59:46;99522.38;;;6.27
70417;BMP280;57839;51.332;12.410;2024-01-06T10:02:16;99517.50;;;6.29
70417;BMP280;57839;51.332;12.410;2024-01-06T10:04:43;99528.22;;;6.32
70417;BMP280;57839;51.332;12.410;2024-01-06T10:07:09;99529.78;;;6.33
70417;BMP280;57839;51.332;12.410;2024-01-06T10:09:37;99531.75;;;6.36
70417;BMP280;57839;51.332;12.410;2024-01-06T10:12:03;99527.19;;;6.37
70417;BMP280;57839;51.332;12.410;2024-01-06T10:14:29;99512.00;;;6.37
70417;BMP280;57839;51.332;12.410;2024-01-06T10:16:54;99518.50;;;6.40
70417;BMP280;57839;51.332;12.410;2024-01-06T10:19:20;99523.44;;;6.41
70417;BMP280;57839;51.332;12.410;2024-01-06T10:21:46;99527.34;;;6.44
70417;BMP280;57839;51.332;12.410;2024-01-06T10:24:11;99530.41;;;6.46
70417;BMP280;57839;51.332;12.410;2024-01-06T10:26:37;99527.84;;;6.49
70417;BMP280;57839;51.332;12.410;2024-01-06T10:29:04;99528.25;;;6.51
70417;BMP280;57839;51.332;12.410;2024-01-06T10:31:29;99536.63;;;6.53
70417;BMP280;57839;51.332;12.410;2024-01-06T10:33:55;99536.28;;;6.55
70417;BMP280;57839;51.332;12.410;2024-01-06T10:36:23;99531.03;;;6.58
70417;BMP280;57839;51.332;12.410;2024-01-06T10:38:49;99544.50;;;6.65
70417;BMP280;57839;51.332;12.410;2024-01-06T10:41:16;99535.94;;;6.75
70417;BMP280;57839;51.332;12.410;2024-01-06T10:43:42;99539.84;;;6.82
70417;BMP280;57839;51.332;12.410;2024-01-06T10:46:09;99542.31;;;6.90
70417;BMP280;57839;51.332;12.410;2024-01-06T10:48:36;99542.06;;;6.99
70417;BMP280;57839;51.332;12.410;2024-01-06T10:51:08;99538.03;;;7.08
70417;BMP280;57839;51.332;12.410;2024-01-06T10:53:34;99532.47;;;7.17
70417;BMP280;57839;51.332;12.410;2024-01-06T10:56:06;99537.19;;;7.27
70417;BMP280;57839;51.332;12.410;2024-01-06T10:58:46;99544.63;;;7.37
70417;BMP280;57839;51.332;12.410;2024-01-06T11:01:13;99542.06;;;7.44
70417;BMP280;57839;51.332;12.410;2024-01-06T11:03:39;99539.88;;;7.50
70417;BMP280;57839;51.332;12.410;2024-01-06T11:06:08;99535.69;;;7.52
70417;BMP280;57839;51.332;12.410;2024-01-06T11:08:43;99533.44;;;7.54
70417;BMP280;57839;51.332;12.410;2024-01-06T11:11:16;99531.59;;;7.58
70417;BMP280;57839;51.332;12.410;2024-01-06T11:13:42;99538.13;;;7.61
70417;BMP280;57839;51.332;12.410;2024-01-06T11:16:10;99540.00;;;7.60
70417;BMP280;57839;51.332;12.410;2024-01-06T11:18:38;99535.81;;;7.59
70417;BMP280;57839;51.332;12.410;2024-01-06T11:21:19;99525.50;;;7.58
70417;BMP280;57839;51.332;12.410;2024-01-06T11:24:13;99534.28;;;7.58
70417;BMP280;57839;51.332;12.410;2024-01-06T11:26:44;99536.22;;;7.61
70417;BMP280;57839;51.332;12.410;2024-01-06T11:29:10;99532.03;;;7.64
70417;BMP280;57839;51.332;12.410;2024-01-06T11:31:39;99541.25;;;7.66
70417;BMP280;57839;51.332;12.410;2024-01-06T11:34:16;99543.19;;;7.69
70417;BMP280;57839;51.332;12.410;2024-01-06T11:36:43;99542.50;;;7.72
70417;BMP280;57839;51.332;12.410;2024-01-06T11:39:36;99542.53;;;7.76
70417;BMP280;57839;51.332;12.410;2024-01-06T11:42:05;99523.91;;;7.79
70417;BMP280;57839;51.332;12.410;2024-01-06T11:44:34;99532.69;;;7.80
70417;BMP280;57839;51.332;12.410;2024-01-06T11:47:01;99541.09;;;7.82
70417;BMP280;57839;51.332;12.410;2024-01-06T11:49:27;99523.56;;;7.84
70417;BMP280;57839;51.332;12.410;2024-01-06T11:51:53;99524.41;;;7.88
70417;BMP280;57839;51.332;12.410;2024-01-06T11:54:21;99524.03;;;7.90
70417;BMP280;57839;51.332;12.410;2024-01-06T11:56:47;99527.88;;;7.92
70417;BMP280;57839;51.332;12.410;2024-01-06T11:59:13;99525.66;;;7.94
70417;BMP280;57839;51.332;12.410;2024-01-06T12:01:38;99532.47;;;7.95
70417;BMP280;57839;51.332;12.410;2024-01-06T12:04:05;99531.78;;;7.98
70417;BMP280;57839;51.332;12.410;2024-01-06T12:06:31;99532.53;;;7.99
70417;BMP280;57839;51.332;12.410;2024-01-06T12:09:07;99535.22;;;7.99
70417;BMP280;57839;51.332;12.410;2024-01-06T12:11:32;99541.34;;;7.99
70417;BMP280;57839;51.332;12.410;2024-01-06T12:13:58;99547.06;;;8.01
70417;BMP280;57839;51.332;12.410;2024-01-06T12:16:24;99556.28;;;8.04
70417;BMP280;57839;51.332;12.410;2024-01-06T12:18:53;99552.47;;;8.05
70417;BMP280;57839;51.332;12.410;2024-01-06T12:21:22;99555.53;;;8.07
70417;BMP280;57839;51.332;12.410;2024-01-06T12:23:47;99560.88;;;8.07
70417;BMP280;57839;51.332;12.410;2024-01-06T12:26:13;99560.88;;;8.07
70417;BMP280;57839;51.332;12.410;2024-01-06T12:28:39;99569.25;;;8.05
70417;BMP280;57839;51.332;12.410;2024-01-06T12:31:04;99565.06;;;8.04
70417;BMP280;57839;51.332;12.410;2024-01-06T12:33:34;99571.19;;;8.05
70417;BMP280;57839;51.332;12.410;2024-01-06T12:36:03;99559.31;;;8.02
70417;BMP280;57839;51.332;12.410;2024-01-06T12:38:29;99557.75;;;8.01
70417;BMP280;57839;51.332;12.410;2024-01-06T12:40:55;99564.25;;;8.00
70417;BMP280;57839;51.332;12.410;2024-01-06T12:43:21;99559.25;;;7.99
70417;BMP280;57839;51.332;12.410;2024-01-06T12:45:46;99563.06;;;7.98
70417;BMP280;57839;51.332;12.410;2024-01-06T12:48:12;99568.38;;;7.94
70417;BMP280;57839;51.332;12.410;2024-01-06T12:50:38;99572.53;;;7.92
70417;BMP280;57839;51.332;12.410;2024-01-06T12:53:03;99578.59;;;7.89
70417;BMP280;57839;51.332;12.410;2024-01-06T12:55:29;99578.50;;;7.85
70417;BMP280;57839;51.332;12.410;2024-01-06T12:57:54;99580.31;;;7.78
70417;BMP280;57839;51.332;12.410;2024-01-06T13:00:20;99583.31;;;7.73
70417;BMP280;57839;51.332;12.410;2024-01-06T13:02:45;99587.41;;;7.67
70417;BMP280;57839;51.332;12.410;2024-01-06T13:05:11;99591.13;;;7.62
70417;BMP280;57839;51.332;12.410;2024-01-06T13:07:38;99599.09;;;7.59
70417;BMP280;57839;51.332;12.410;2024-01-06T13:10:05;99604.38;;;7.55
70417;BMP280;57839;51.332;12.410;2024-01-06T13:12:30;99613.06;;;7.52
70417;BMP280;57839;51.332;12.410;2024-01-06T13:14:56;99611.16;;;7.49
70417;BMP280;57839;51.332;12.410;2024-01-06T13:17:21;99608.78;;;7.44
70417;BMP280;57839;51.332;12.410;2024-01-06T13:19:47;99607.09;;;7.36
70417;BMP280;57839;51.332;12.410;2024-01-06T13:22:12;99604.31;;;7.29
70417;BMP280;57839;51.332;12.410;2024-01-06T13:24:40;99612.19;;;7.22
70417;BMP280;57839;51.332;12.410;2024-01-06T13:27:06;99609.41;;;7.15
70417;BMP280;57839;51.332;12.410;2024-01-06T13:29:31;99614.22;;;7.09
70417;BMP280;57839;51.332;12.410;2024-01-06T13:31:57;99614.50;;;7.04
70417;BMP280;57839;51.332;12.410;2024-01-06T13:34:24;99612.16;;;6.99
70417;BMP280;57839;51.332;12.410;2024-01-06T13:36:50;99624.31;;;6.97
70417;BMP280;57839;51.332;12.410;2024-01-06T13:39:15;99624.56;;;6.92
70417;BMP280;57839;51.332;12.410;2024-01-06T13:41:49;99629.50;;;6.90
70417;BMP280;57839;51.332;12.410;2024-01-06T13:44:15;99635.53;;;6.87
70417;BMP280;57839;51.332;12.410;2024-01-06T13:46:41;99642.66;;;6.83
70417;BMP280;57839;51.332;12.410;2024-01-06T13:49:13;99641.06;;;6.78
70417;BMP280;57839;51.332;12.410;2024-01-06T13:51:42;99639.09;;;6.75
70417;BMP280;57839;51.332;12.410;2024-01-06T13:54:08;99637.13;;;6.72
70417;BMP280;57839;51.332;12.410;2024-01-06T13:56:34;99637.03;;;6.68
70417;BMP280;57839;51.332;12.410;2024-01-06T13:59:00;99643.09;;;6.65
70417;BMP280;57839;51.332;12.410;2024-01-06T14:01:25;99640.34;;;6.62
70417;BMP280;57839;51.332;12.410;2024-01-06T14:03:51;99644.47;;;6.59